createdAt,value
2023-03-17T00:02:01.464Z,101213.45
2023-03-17T00:04:32.721Z,101206.93
2023-03-17T00:07:05.644Z,101198.01
2023-03-17T00:09:38.080Z,101197.23
2023-03-17T00:12:13.897Z,101199.31
2023-03-17T00:14:44.180Z,101195.59
2023-03-17T00:17:18.589Z,101197.33
2023-03-17T00:19:50.138Z,101189.77
2023-03-17T00:22:21.907Z,101191.50
2023-03-17T00:24:55.836Z,101192.17
2023-03-17T00:27:35.133Z,101184.25
2023-03-17T00:30:10.232Z,101179.23
2023-03-17T00:32:55.652Z,101176.56
2023-03-17T00:35:28.778Z,101172.21
2023-03-17T00:37:59.518Z,101164.48
2023-03-17T00:40:35.940Z,101159.50
2023-03-17T00:43:15.190Z,101159.98
2023-03-17T00:45:46.494Z,101161.17
2023-03-17T00:48:24.686Z,101160.99
2023-03-17T00:50:54.793Z,101162.38
2023-03-17T00:53:23.233Z,101157.61
2023-03-17T00:55:56.266Z,101154.40
2023-03-17T00:58:40.704Z,101146.09
2023-03-17T01:01:14.283Z,101144.05
2023-03-17T01:03:42.909Z,101141.98
2023-03-17T01:06:16.431Z,101148.83
2023-03-17T01:08:44.959Z,101147.41
2023-03-17T01:11:22.946Z,101144.50
2023-03-17T01:14:08.220Z,101142.40
2023-03-17T01:17:02.653Z,101134.40
2023-03-17T01:19:36.775Z,101133.91
2023-03-17T01:22:22.652Z,101133.02
2023-03-17T01:25:05.742Z,101123.42
2023-03-17T01:27:41.583Z,101110.74
2023-03-17T01:30:28.486Z,101107.61
2023-03-17T01:33:04.467Z,101106.20
2023-03-17T01:35:42.788Z,101109.26
2023-03-17T01:38:17.747Z,101108.23
2023-03-17T01:40:55.582Z,101105.02
2023-03-17T01:43:37.664Z,101093.07
2023-03-17T01:46:36.556Z,101086.91
2023-03-17T01:49:49.677Z,101077.94
2023-03-17T01:52:27.550Z,101082.64
2023-03-17T01:55:17.990Z,101090.12
2023-03-17T01:57:54.162Z,101087.89
2023-03-17T02:00:26.216Z,101080.05
2023-03-17T02:02:56.979Z,101077.34
2023-03-17T02:05:32.962Z,101075.20
2023-03-17T02:08:01.750Z,101070.66
2023-03-17T02:10:33.452Z,101068.48
2023-03-17T02:13:19.196Z,101071.08
2023-03-17T02:15:54.283Z,101075.52
2023-03-17T02:18:28.177Z,101069.37
2023-03-17T02:21:39.324Z,101065.96
2023-03-17T02:24:39.064Z,101060.73
2023-03-17T02:27:30.206Z,101061.67
2023-03-17T02:30:08.706Z,101065.73
2023-03-17T02:32:40.328Z,101074.84
2023-03-17T02:35:11.595Z,101081.58
2023-03-17T02:37:48.304Z,101077.64
2023-03-17T02:40:19.707Z,101079.38
2023-03-17T02:42:59.233Z,101080.27
2023-03-17T02:45:42.265Z,101081.30
2023-03-17T02:48:15.093Z,101080.77
2023-03-17T02:50:48.340Z,101085.47
2023-03-17T02:53:23.697Z,101076.45
2023-03-17T02:56:02.397Z,101079.27
2023-03-17T02:58:34.994Z,101078.73
2023-03-17T03:01:10.007Z,101081.45
2023-03-17T03:03:41.178Z,101083.63
2023-03-17T03:06:20.394Z,101078.13
2023-03-17T03:08:56.170Z,101076.67
2023-03-17T03:11:36.806Z,101073.50
2023-03-17T03:14:16.191Z,101072.31
2023-03-17T03:17:19.654Z,101069.91
2023-03-17T03:20:03.615Z,101071.23
2023-03-17T03:22:44.084Z,101074.52
2023-03-17T03:25:16.012Z,101071.33
2023-03-17T03:27:53.109Z,101071.02
2023-03-17T03:30:36.544Z,101071.83
2023-03-17T03:33:06.145Z,101068.89
2023-03-17T03:35:42.977Z,101066.20
2023-03-17T03:38:16.142Z,101065.70
2023-03-17T03:40:54.393Z,101065.86
2023-03-17T03:43:29.081Z,101066.37
2023-03-17T03:46:03.550Z,101061.73
2023-03-17T03:48:34.580Z,101053.34
2023-03-17T03:51:05.141Z,101049.52
2023-03-17T03:53:53.339Z,101048.46
2023-03-17T03:56:24.808Z,101049.95
2023-03-17T03:58:55.477Z,101050.63
2023-03-17T04:01:26.352Z,101048.77
2023-03-17T04:03:58.741Z,101051.19
2023-03-17T04:06:27.425Z,101049.72
2023-03-17T04:08:58.150Z,101050.11
2023-03-17T04:11:29.809Z,101050.30
2023-03-17T04:13:58.672Z,101044.15
2023-03-17T04:16:26.985Z,101037.85
2023-03-17T04:18:55.542Z,101036.48
2023-03-17T04:21:44.534Z,101033.90
2023-03-17T04:24:34.945Z,101036.09
2023-03-17T04:27:12.081Z,101039.30
2023-03-17T04:29:49.224Z,101045.45
2023-03-17T04:32:20.334Z,101052.41
2023-03-17T04:34:50.191Z,101056.76
2023-03-17T04:37:42.764Z,101067.33
2023-03-17T04:40:20.494Z,101059.80
2023-03-17T04:43:01.833Z,101056.81
2023-03-17T04:45:34.661Z,101057.88
2023-03-17T04:48:06.296Z,101057.57
2023-03-17T04:50:49.736Z,101059.80
2023-03-17T04:53:22.226Z,101065.95
2023-03-17T04:55:58.598Z,101063.20
2023-03-17T04:58:31.241Z,101063.20
2023-03-17T05:01:07.015Z,101063.86
2023-03-17T05:03:41.541Z,101065.26
2023-03-17T05:06:17.369Z,101063.79
2023-03-17T05:08:45.565Z,101066.06
2023-03-17T05:11:24.378Z,101064.14
2023-03-17T05:13:56.721Z,101062.84
2023-03-17T05:16:25.485Z,101053.70
2023-03-17T05:18:55.054Z,101045.55
2023-03-17T05:21:26.702Z,101042.84
2023-03-17T05:23:59.207Z,101047.27
2023-03-17T05:26:38.386Z,101043.13
2023-03-17T05:29:15.659Z,101041.80
2023-03-17T05:31:47.048Z,101041.37
2023-03-17T05:34:19.825Z,101042.91
2023-03-17T05:36:48.473Z,101047.42
2023-03-17T05:39:25.716Z,101044.61
2023-03-17T05:42:01.573Z,101042.10
2023-03-17T05:44:35.493Z,101043.05
2023-03-17T05:47:05.339Z,101043.65
2023-03-17T05:49:44.988Z,101049.94
2023-03-17T05:52:34.606Z,101057.91
2023-03-17T05:55:16.703Z,101053.55
2023-03-17T05:57:51.070Z,101051.56
2023-03-17T06:00:31.397Z,101053.70
2023-03-17T06:03:03.790Z,101057.21
2023-03-17T06:05:37.108Z,101059.56
2023-03-17T06:08:07.889Z,101056.05
2023-03-17T06:10:46.653Z,101057.14
2023-03-17T06:13:15.493Z,101054.14
2023-03-17T06:15:53.637Z,101042.74
2023-03-17T06:18:24.678Z,101040.13
2023-03-17T06:21:04.529Z,101044.16
2023-03-17T06:23:38.944Z,101044.61
2023-03-17T06:26:08.783Z,101046.60
2023-03-17T06:28:50.654Z,101048.45
2023-03-17T06:31:21.837Z,101047.15
2023-03-17T06:33:50.726Z,101046.48
2023-03-17T06:36:21.566Z,101055.50
2023-03-17T06:39:04.503Z,101051.70
2023-03-17T06:41:37.045Z,101053.58
2023-03-17T06:44:09.593Z,101054.80
2023-03-17T06:46:38.806Z,101055.16
2023-03-17T06:49:14.650Z,101061.89
2023-03-17T06:51:51.628Z,101059.86
2023-03-17T06:54:27.233Z,101057.64
2023-03-17T06:56:56.320Z,101062.06
2023-03-17T06:59:30.336Z,101060.44
2023-03-17T07:02:03.502Z,101064.98
2023-03-17T07:04:38.447Z,101068.71
2023-03-17T07:07:19.358Z,101074.10
2023-03-17T07:10:10.096Z,101071.46
2023-03-17T07:12:39.314Z,101064.59
2023-03-17T07:15:19.974Z,101062.34
2023-03-17T07:17:51.297Z,101054.66
2023-03-17T07:20:22.088Z,101052.92
2023-03-17T07:22:56.548Z,101051.69
2023-03-17T07:25:30.222Z,101053.67
2023-03-17T07:28:04.678Z,101051.79
2023-03-17T07:30:38.819Z,101053.52
2023-03-17T07:33:08.885Z,101052.91
2023-03-17T07:35:39.861Z,101047.50
2023-03-17T07:38:20.494Z,101040.09
2023-03-17T07:40:52.781Z,101032.75
2023-03-17T07:43:26.964Z,101025.37
2023-03-17T07:46:06.431Z,101021.48
2023-03-17T07:48:40.567Z,101016.64
2023-03-17T07:51:24.038Z,101008.23
2023-03-17T07:53:52.795Z,100991.19
2023-03-17T07:56:26.610Z,100987.66
2023-03-17T07:59:00.840Z,100993.85
2023-03-17T08:01:30.339Z,100996.52
2023-03-17T08:04:02.883Z,100998.00
2023-03-17T08:06:35.425Z,101003.39
2023-03-17T08:09:06.999Z,101004.64
2023-03-17T08:11:52.049Z,101004.95
2023-03-17T08:14:25.640Z,100998.37
2023-03-17T08:16:57.243Z,100993.83
2023-03-17T08:19:31.341Z,100991.69
2023-03-17T08:22:07.564Z,100993.31
2023-03-17T08:24:40.054Z,100993.55
2023-03-17T08:27:12.519Z,100990.73
2023-03-17T08:29:44.197Z,100985.11
2023-03-17T08:32:14.312Z,100976.34
2023-03-17T08:34:48.250Z,100975.05
2023-03-17T08:37:24.643Z,100975.41
2023-03-17T08:39:58.890Z,100976.91
2023-03-17T08:42:46.050Z,100977.64
2023-03-17T08:45:29.404Z,100968.16
2023-03-17T08:48:23.689Z,100965.27
2023-03-17T08:51:10.573Z,100962.77
2023-03-17T08:53:43.267Z,100965.96
2023-03-17T08:56:17.155Z,100966.11
2023-03-17T08:58:51.038Z,100961.81
2023-03-17T09:01:34.360Z,100951.52
2023-03-17T09:04:08.183Z,100946.88
2023-03-17T09:06:39.661Z,100945.85
2023-03-17T09:09:26.112Z,100943.58
2023-03-17T09:12:09.583Z,100940.47
2023-03-17T09:14:43.975Z,100946.01
2023-03-17T09:17:36.908Z,100943.52
2023-03-17T09:20:07.747Z,100938.80
2023-03-17T09:22:51.852Z,100929.58
2023-03-17T09:25:40.772Z,100939.52
2023-03-17T09:28:31.297Z,100926.94
2023-03-17T09:31:12.460Z,100928.33
2023-03-17T09:33:51.188Z,100930.96
2023-03-17T09:36:23.192Z,100930.93
2023-03-17T09:39:00.048Z,100929.88
2023-03-17T09:42:37.254Z,100928.77
2023-03-17T09:45:17.953Z,100921.48
2023-03-17T09:48:07.300Z,100918.70
2023-03-17T09:51:04.968Z,100920.73
2023-03-17T09:54:05.951Z,100926.54
2023-03-17T09:56:40.039Z,100928.08
2023-03-17T09:59:45.799Z,100926.38
2023-03-17T10:02:32.824Z,100928.41
2023-03-17T10:05:23.152Z,100923.48
2023-03-17T10:08:28.984Z,100926.58
2023-03-17T10:11:16.196Z,100925.70
2023-03-17T10:14:24.165Z,100919.21
2023-03-17T10:17:27.753Z,100923.14
2023-03-17T10:20:11.652Z,100916.01
2023-03-17T10:23:02.599Z,100910.88
2023-03-17T10:25:37.267Z,100915.86
2023-03-17T10:28:31.671Z,100915.02
2023-03-17T10:31:33.221Z,100912.80
2023-03-17T10:34:21.564Z,100912.64
2023-03-17T10:37:08.655Z,100903.55
2023-03-17T10:39:51.713Z,100906.20
2023-03-17T10:42:28.995Z,100908.85
2023-03-17T10:45:32.588Z,100902.80
2023-03-17T10:48:12.446Z,100898.58
2023-03-17T10:50:54.464Z,100892.17
2023-03-17T10:53:30.104Z,100886.14
2023-03-17T10:56:23.848Z,100877.13
2023-03-17T10:59:01.072Z,100871.58
2023-03-17T11:01:47.243Z,100874.02
2023-03-17T11:04:27.545Z,100878.64
2023-03-17T11:07:18.806Z,100875.80
2023-03-17T11:09:53.156Z,100872.05
2023-03-17T11:12:58.920Z,100859.53
2023-03-17T11:15:40.320Z,100849.16
2023-03-17T11:18:48.600Z,100850.90
2023-03-17T11:22:34.238Z,100838.39
2023-03-17T11:25:24.562Z,100829.98
2023-03-17T11:28:24.642Z,100828.20
2023-03-17T11:31:19.322Z,100818.48
2023-03-17T11:34:20.297Z,100809.83
2023-03-17T11:37:00.013Z,100819.16
2023-03-17T11:39:53.629Z,100816.52
2023-03-17T11:42:50.505Z,100815.88
2023-03-17T11:46:07.308Z,100810.84
2023-03-17T11:49:14.724Z,100818.28
2023-03-17T11:51:59.272Z,100829.02
2023-03-17T11:54:54.107Z,100825.35
2023-03-17T11:58:21.271Z,100828.71
2023-03-17T12:01:01.146Z,100828.46
2023-03-17T12:04:03.094Z,100828.60
2023-03-17T12:06:35.404Z,100821.38
2023-03-17T12:09:36.429Z,100816.16
2023-03-17T12:12:39.678Z,100807.16
2023-03-17T12:15:30.666Z,100801.59
2023-03-17T12:18:35.255Z,100793.88
2023-03-17T12:21:32.581Z,100795.23
2023-03-17T12:25:01.469Z,100801.13
2023-03-17T12:27:43.268Z,100799.43
2023-03-17T12:30:47.225Z,100792.71
2023-03-17T12:33:37.512Z,100790.91
2023-03-17T12:36:17.563Z,100792.14
2023-03-17T12:43:01.878Z,100787.38
2023-03-17T12:46:11.638Z,100784.77
2023-03-17T12:49:29.883Z,100774.36
2023-03-17T12:52:34.988Z,100767.18
2023-03-17T12:55:19.687Z,100759.77
2023-03-17T12:58:18.594Z,100746.74
2023-03-17T13:01:27.024Z,100748.30
2023-03-17T13:04:05.932Z,100742.55
2023-03-17T13:07:01.076Z,100732.29
2023-03-17T13:14:47.973Z,100710.77
2023-03-17T13:18:23.680Z,100700.23
2023-03-17T13:21:04.070Z,100693.31
2023-03-17T13:23:41.578Z,100690.02
2023-03-17T13:26:19.768Z,100689.18
2023-03-17T13:28:58.912Z,100692.95
2023-03-17T13:31:37.424Z,100692.62
2023-03-17T13:34:22.198Z,100688.94
2023-03-17T13:37:20.385Z,100693.54
2023-03-17T13:40:13.551Z,100695.73
2023-03-17T13:43:25.739Z,100693.46
2023-03-17T13:46:27.202Z,100691.73
2023-03-17T13:49:01.704Z,100691.81
2023-03-17T13:51:40.163Z,100687.59
2023-03-17T13:54:54.465Z,100686.75
2023-03-17T13:58:56.200Z,100684.38
2023-03-17T14:02:17.892Z,100683.40
2023-03-17T14:05:17.913Z,100684.80
2023-03-17T14:08:06.200Z,100688.53
2023-03-17T14:10:47.552Z,100681.36
2023-03-17T14:14:15.217Z,100677.95
2023-03-17T14:17:45.445Z,100671.59
2023-03-17T14:21:02.751Z,100657.60
2023-03-17T14:31:01.240Z,100654.46
2023-03-17T14:34:22.764Z,100650.85
2023-03-17T14:37:16.581Z,100654.63
2023-03-17T14:43:51.597Z,100641.95
2023-03-17T14:47:07.904Z,100649.30
2023-03-17T14:53:01.362Z,100655.48
2023-03-17T14:56:17.015Z,100646.08
2023-03-17T15:00:02.969Z,100645.52
2023-03-17T15:11:01.944Z,100647.23
2023-03-17T15:14:02.750Z,100635.23
2023-03-17T15:17:21.352Z,100631.05
2023-03-17T15:20:16.352Z,100631.86
2023-03-17T15:23:15.264Z,100639.43
2023-03-17T15:26:04.633Z,100640.66
2023-03-17T15:28:51.509Z,100634.79
2023-03-17T15:31:29.979Z,100630.58
2023-03-17T15:34:15.756Z,100627.67
2023-03-17T15:36:55.549Z,100623.77
2023-03-17T15:39:50.756Z,100623.66
2023-03-17T15:43:15.037Z,100620.88
2023-03-17T15:46:41.968Z,100620.23
2023-03-17T15:49:29.907Z,100619.71
2023-03-17T15:53:05.493Z,100615.36
2023-03-17T15:56:16.133Z,100611.06
2023-03-17T15:59:05.393Z,100609.67
2023-03-17T16:01:44.549Z,100607.88
2023-03-17T16:04:22.489Z,100604.23
2023-03-17T16:06:56.545Z,100596.87
2023-03-17T16:09:28.416Z,100593.19
2023-03-17T16:12:05.097Z,100595.08
2023-03-17T16:14:46.470Z,100595.58
2023-03-17T16:17:31.466Z,100597.96
2023-03-17T16:20:02.018Z,100608.48
2023-03-17T16:22:44.659Z,100607.51
2023-03-17T16:25:39.976Z,100610.20
2023-03-17T16:28:34.300Z,100610.23
2023-03-17T16:31:34.774Z,100607.83
2023-03-17T16:34:26.292Z,100606.14
2023-03-17T16:37:23.249Z,100602.17
2023-03-17T16:40:37.990Z,100597.70
2023-03-17T16:43:29.989Z,100600.14
2023-03-17T16:46:21.485Z,100602.02
2023-03-17T16:48:59.104Z,100598.86
2023-03-17T16:51:32.765Z,100598.55
2023-03-17T16:54:04.602Z,100600.34
2023-03-17T16:56:38.892Z,100604.08
2023-03-17T16:59:33.968Z,100608.92
2023-03-17T17:02:18.906Z,100613.02
2023-03-17T17:04:55.007Z,100616.18
2023-03-17T17:07:32.640Z,100612.73
2023-03-17T17:10:24.780Z,100612.16
2023-03-17T17:13:25.313Z,100611.25
2023-03-17T17:16:00.813Z,100605.36
2023-03-17T17:18:49.912Z,100602.16
2023-03-17T17:23:00.818Z,100603.17
2023-03-17T17:25:43.597Z,100607.95
2023-03-17T17:28:29.952Z,100611.23
2023-03-17T17:31:06.771Z,100614.44
2023-03-17T17:33:59.937Z,100615.52
2023-03-17T17:37:04.211Z,100610.92
2023-03-17T17:40:00.468Z,100609.98
2023-03-17T17:42:39.073Z,100606.60
2023-03-17T17:45:14.449Z,100610.55
2023-03-17T17:47:56.315Z,100611.03
2023-03-17T17:50:36.584Z,100613.85
2023-03-17T17:53:18.565Z,100608.80
2023-03-17T17:55:59.604Z,100605.09
2023-03-17T17:58:37.350Z,100598.98
2023-03-17T18:01:06.539Z,100600.32
2023-03-17T18:04:05.981Z,100600.68
2023-03-17T18:06:54.610Z,100604.53
2023-03-17T18:09:35.528Z,100606.02
2023-03-17T18:12:24.479Z,100597.94
2023-03-17T18:15:05.553Z,100599.16
2023-03-17T18:17:46.205Z,100600.08
2023-03-17T18:20:30.700Z,100599.71
2023-03-17T18:23:06.809Z,100593.27
2023-03-17T18:25:52.165Z,100590.73
2023-03-17T18:28:33.321Z,100592.73
2023-03-17T18:31:36.476Z,100591.27
2023-03-17T18:35:03.419Z,100597.76
2023-03-17T18:38:16.539Z,100603.64
2023-03-17T18:41:12.724Z,100606.65
2023-03-17T18:44:12.745Z,100610.36
2023-03-17T18:46:50.553Z,100605.36
2023-03-17T18:49:27.330Z,100605.13
2023-03-17T18:52:27.270Z,100600.78
2023-03-17T18:55:42.971Z,100600.27
2023-03-17T18:58:57.151Z,100598.97
2023-03-17T19:01:59.417Z,100595.06
2023-03-17T19:04:36.529Z,100596.36
2023-03-17T19:07:52.191Z,100595.79
2023-03-17T19:10:33.590Z,100597.23
2023-03-17T19:13:24.554Z,100602.45
2023-03-17T19:16:08.261Z,100600.35
2023-03-17T19:18:58.927Z,100599.17
2023-03-17T19:22:07.948Z,100596.77
2023-03-17T19:24:59.346Z,100595.06
2023-03-17T19:27:47.779Z,100596.48
2023-03-17T19:30:31.675Z,100595.66
2023-03-17T19:33:10.618Z,100596.73
2023-03-17T19:36:06.346Z,100596.44
2023-03-17T19:39:32.439Z,100593.55
2023-03-17T19:42:14.252Z,100591.88
2023-03-17T19:45:28.161Z,100594.16
2023-03-17T19:48:19.206Z,100603.01
2023-03-17T19:51:42.387Z,100602.34
2023-03-17T19:54:24.458Z,100601.52
2023-03-17T19:57:09.336Z,100599.27
2023-03-17T20:00:26.745Z,100597.80
2023-03-17T20:03:06.443Z,100594.88
2023-03-17T20:06:22.170Z,100594.39
2023-03-17T20:09:11.977Z,100591.86
2023-03-17T20:12:03.462Z,100593.81
2023-03-17T20:15:01.278Z,100591.61
2023-03-17T20:18:17.229Z,100588.38
2023-03-17T20:21:07.383Z,100587.55
2023-03-17T20:23:52.734Z,100587.02
2023-03-17T20:26:52.176Z,100579.74
2023-03-17T20:29:28.494Z,100579.21
2023-03-17T20:32:53.192Z,100577.20
2023-03-17T20:36:08.571Z,100575.71
2023-03-17T20:39:19.239Z,100571.44
2023-03-17T20:42:26.530Z,100569.94
2023-03-17T20:45:09.552Z,100569.07
2023-03-17T20:48:04.951Z,100562.69
2023-03-17T20:50:50.780Z,100560.63
2023-03-17T20:57:28.383Z,100557.71
2023-03-17T21:00:05.070Z,100553.25
2023-03-17T21:02:38.806Z,100552.91
2023-03-17T21:05:31.851Z,100553.08
2023-03-17T21:08:05.449Z,100553.10
2023-03-17T21:10:45.070Z,100551.90
2023-03-17T21:13:36.643Z,100549.18
2023-03-17T21:16:34.461Z,100546.95
2023-03-17T21:19:28.862Z,100545.11
2023-03-17T21:22:05.367Z,100545.31
2023-03-17T21:24:42.315Z,100542.70
2023-03-17T21:27:18.315Z,100541.52
2023-03-17T21:29:57.229Z,100540.34
2023-03-17T21:32:33.800Z,100533.63
2023-03-17T21:35:17.021Z,100535.91
2023-03-17T21:37:52.241Z,100534.55
2023-03-17T21:40:54.843Z,100540.16
2023-03-17T21:44:03.942Z,100540.02
2023-03-17T21:46:41.499Z,100537.48
2023-03-17T21:49:19.628Z,100541.15
2023-03-17T21:52:03.174Z,100539.48
2023-03-17T21:54:42.852Z,100534.00
2023-03-17T21:57:17.852Z,100529.17
2023-03-17T22:03:10.408Z,100526.35
2023-03-17T22:05:46.280Z,100515.66
2023-03-17T22:08:25.019Z,100514.49
2023-03-17T22:11:36.502Z,100503.82
2023-03-17T22:14:24.576Z,100502.52
2023-03-17T22:16:59.171Z,100504.27
2023-03-17T22:19:56.832Z,100505.14
2023-03-17T22:22:30.457Z,100500.19
2023-03-17T22:25:00.105Z,100499.35
2023-03-17T22:27:33.657Z,100498.18
2023-03-17T22:30:08.901Z,100493.05
2023-03-17T22:32:43.838Z,100489.99
2023-03-17T22:35:23.904Z,100486.79
2023-03-17T22:37:56.271Z,100483.05
2023-03-17T22:40:38.084Z,100479.98
2023-03-17T22:43:13.333Z,100478.68
2023-03-17T22:45:43.758Z,100482.89
2023-03-17T22:48:17.530Z,100481.55
2023-03-17T22:51:02.606Z,100477.78
2023-03-17T22:53:33.270Z,100478.34
2023-03-17T22:56:10.670Z,100475.81
2023-03-17T22:58:54.402Z,100478.98
2023-03-17T23:01:31.023Z,100480.77
2023-03-17T23:04:08.837Z,100484.09
2023-03-17T23:06:41.882Z,100487.25
2023-03-17T23:09:27.121Z,100488.84
2023-03-17T23:12:03.848Z,100484.98
2023-03-17T23:14:37.007Z,100484.10
2023-03-17T23:17:10.869Z,100482.22
2023-03-17T23:19:42.115Z,100482.59
2023-03-17T23:22:26.704Z,100477.80
2023-03-17T23:25:03.149Z,100480.60
2023-03-17T23:27:50.414Z,100473.41
2023-03-17T23:30:19.293Z,100475.49
2023-03-17T23:32:59.471Z,100473.95
2023-03-17T23:35:30.652Z,100480.02
2023-03-17T23:38:06.519Z,100485.05
2023-03-17T23:40:40.722Z,100483.34
2023-03-17T23:43:14.038Z,100482.48
2023-03-17T23:45:56.828Z,100482.84
2023-03-17T23:48:28.973Z,100483.55
2023-03-17T23:51:07.180Z,100490.80
2023-03-17T23:53:38.295Z,100485.63
2023-03-17T23:56:17.805Z,100483.20
2023-03-17T23:58:52.672Z,100481.17
